Terminal Aerodrome Forecast
Issued by NWS

Home | Current Version | Previous Version | Text Only | Print | Product List | Glossary On
Versions: 1 2 3 4 5 6 7 8 9 10 11 12 13 14 15 16 17 18 19 20 21
000
FTUS42 KFFC 061901 AAA
TAFFTY
TAF AMD
KFTY 061901Z 0619/0718 05008KT 3SM -RA BR BKN005
     FM062000 20010KT 5SM BR VCSH FEW005 BKN008
     FM062200 25013G20KT P6SM FEW015 BKN020
     FM070000 31012G18KT P6SM BKN025
     FM070400 31008KT 6SM BR BKN008
     FM071500 32006KT P6SM SCT015=

USA.gov is the U.S. government's official web portal to all federal, state and local government web resources and services.